Adolph, Minnesota
Current Conditions -  °F | °C
As of 11:55 PM on Thursday 18 Dec 2014 (Local Time) from KDLH Reporting Station
Overcast Overcast  
Wind Chill: -10°   Ceiling: 700
Heat Index: -6°   Visibility: 10mi
Dew Point: -8°   Wind: 6mph
Humidity: 85%   Direction: 170°S
Pressure: 30.21"   Gusts: NA
Location:  46.78°N, 92.28°W
Report Text: KDLH 190555Z 17005KT 10SM OVC007 M06/M08 A3021 RMK AO2 SNE41 SLP255 P0000 60000 T10561078 11044 21056 410391083 58000
Loading
Personal Weather Stations






























Interactive Weather Map New forecast layout! Learn more

10-Day Weather Forecast

Advertisements
Track Severe Weather on mobile